createdAt,value
2022-12-23T00:01:22.965Z,98065.94
2022-12-23T00:03:49.844Z,98072.81
2022-12-23T00:06:18.318Z,98070.19
2022-12-23T00:08:45.205Z,98064.28
2022-12-23T00:11:21.033Z,98075.22
2022-12-23T00:14:26.319Z,98074.38
2022-12-23T00:16:53.336Z,98090.72
2022-12-23T00:19:20.143Z,98083.78
2022-12-23T00:21:48.431Z,98071.59
2022-12-23T00:24:15.305Z,98059.53
2022-12-23T00:26:42.006Z,98047.38
2022-12-23T00:29:08.809Z,98032.63
2022-12-23T00:31:35.580Z,98014.50
2022-12-23T00:34:02.349Z,98008.28
2022-12-23T00:36:30.433Z,98008.22
2022-12-23T00:39:18.388Z,98004.78
2022-12-23T00:42:04.065Z,98010.38
2022-12-23T00:44:31.206Z,98016.75
2022-12-23T00:46:58.074Z,98022.03
2022-12-23T00:49:43.168Z,98012.41
2022-12-23T00:52:12.968Z,98018.41
2022-12-23T00:54:39.756Z,98018.34
2022-12-23T00:57:06.636Z,98013.31
2022-12-23T00:59:34.175Z,98011.63
2022-12-23T01:02:19.487Z,98005.53
2022-12-23T01:05:04.926Z,97995.25
2022-12-23T01:07:31.717Z,97996.84
2022-12-23T01:09:58.498Z,97995.78
2022-12-23T01:12:25.209Z,97997.47
2022-12-23T01:14:51.962Z,97991.50
2022-12-23T01:17:18.864Z,97994.78
2022-12-23T01:19:45.661Z,97982.53
2022-12-23T01:22:12.466Z,97973.13
2022-12-23T01:24:39.195Z,97967.91
2022-12-23T01:27:05.915Z,97970.25
2022-12-23T01:29:32.813Z,97979.72
2022-12-23T01:31:59.520Z,97975.34
2022-12-23T01:34:31.079Z,97978.69
2022-12-23T01:37:01.236Z,97984.09
2022-12-23T01:39:27.909Z,97973.31
2022-12-23T01:42:13.525Z,97968.34
2022-12-23T01:44:51.590Z,97976.75
2022-12-23T01:47:39.668Z,97968.97
2022-12-23T01:50:14.198Z,97973.34
2022-12-23T01:52:47.866Z,97978.44
2022-12-23T01:55:19.293Z,97975.84
2022-12-23T01:57:47.094Z,97975.78
2022-12-23T02:00:33.555Z,97966.91
2022-12-23T02:03:18.947Z,97964.13
2022-12-23T02:05:46.950Z,97964.03
2022-12-23T02:08:34.384Z,97978.56
2022-12-23T02:11:45.889Z,97974.59
2022-12-23T02:14:52.019Z,97958.06
2022-12-23T02:17:26.745Z,97954.34
2022-12-23T02:20:21.605Z,97967.16
2022-12-23T02:23:09.864Z,97959.44
2022-12-23T02:25:39.240Z,97966.13
2022-12-23T02:28:28.903Z,97967.91
2022-12-23T02:31:09.641Z,97962.72
2022-12-23T02:33:48.518Z,97949.09
2022-12-23T02:36:33.885Z,97970.50
2022-12-23T02:39:07.993Z,97963.69
2022-12-23T02:41:54.647Z,97950.63
2022-12-23T02:44:34.260Z,97945.34
2022-12-23T02:47:05.863Z,97948.09
2022-12-23T02:49:36.518Z,97926.53
2022-12-23T02:52:07.642Z,97917.75
2022-12-23T02:54:41.901Z,97922.09
2022-12-23T02:57:11.556Z,97919.63
2022-12-23T02:59:46.210Z,97919.81
2022-12-23T03:02:13.780Z,97920.56
2022-12-23T03:04:42.204Z,97913.63
2022-12-23T03:07:18.973Z,97903.28
2022-12-23T03:10:03.960Z,97922.88
2022-12-23T03:12:49.441Z,97927.25
2022-12-23T03:15:29.443Z,97900.00
2022-12-23T03:17:59.233Z,97939.41
2022-12-23T03:20:35.266Z,97927.44
2022-12-23T03:23:05.891Z,97900.13
2022-12-23T03:25:42.413Z,97918.59
2022-12-23T03:28:18.995Z,97899.50
2022-12-23T03:30:51.318Z,97902.91
2022-12-23T03:33:25.058Z,97898.47
2022-12-23T03:35:56.762Z,97886.41
2022-12-23T03:38:25.158Z,97880.16
2022-12-23T03:40:58.654Z,97875.78
2022-12-23T03:43:30.761Z,97873.06
2022-12-23T03:46:03.316Z,97866.28
2022-12-23T03:48:38.765Z,97865.59
2022-12-23T03:51:20.119Z,97879.50
2022-12-23T03:53:51.874Z,97903.41
2022-12-23T03:56:34.316Z,97898.03
2022-12-23T03:59:09.639Z,97873.78
2022-12-23T04:01:54.265Z,97895.31
2022-12-23T04:04:27.767Z,97895.44
2022-12-23T04:07:03.642Z,97873.78
2022-12-23T04:09:30.448Z,97857.97
2022-12-23T04:11:58.594Z,97847.59
2022-12-23T04:14:25.300Z,97845.72
2022-12-23T04:16:56.359Z,97853.56
2022-12-23T04:19:23.082Z,97841.44
2022-12-23T04:21:50.031Z,97838.03
2022-12-23T04:24:16.937Z,97845.94
2022-12-23T04:26:43.633Z,97849.56
2022-12-23T04:29:10.379Z,97870.50
2022-12-23T04:31:37.163Z,97863.63
2022-12-23T04:34:03.884Z,97855.63
2022-12-23T04:36:30.767Z,97848.41
2022-12-23T04:38:57.453Z,97836.13
2022-12-23T04:41:24.425Z,97853.31
2022-12-23T04:43:53.291Z,97866.66
2022-12-23T04:46:20.724Z,97872.75
2022-12-23T04:48:47.404Z,97869.22
2022-12-23T04:51:14.233Z,97880.56
2022-12-23T04:53:40.926Z,97879.84
2022-12-23T04:56:07.738Z,97883.25
2022-12-23T04:58:34.514Z,97890.22
2022-12-23T05:01:05.514Z,97886.91
2022-12-23T05:03:32.372Z,97891.97
2022-12-23T05:05:59.306Z,97898.03
2022-12-23T05:08:26.137Z,97895.31
2022-12-23T05:10:52.839Z,97878.59
2022-12-23T05:13:19.604Z,97859.34
2022-12-23T05:15:48.775Z,97857.41
2022-12-23T05:18:16.604Z,97858.28
2022-12-23T05:20:43.817Z,97847.03
2022-12-23T05:23:10.424Z,97841.75
2022-12-23T05:25:38.293Z,97839.13
2022-12-23T05:28:08.048Z,97838.84
2022-12-23T05:30:34.963Z,97824.00
2022-12-23T05:33:01.905Z,97837.75
2022-12-23T05:35:28.857Z,97852.00
2022-12-23T05:37:55.577Z,97863.47
2022-12-23T05:40:24.508Z,97864.31
2022-12-23T05:42:55.458Z,97850.16
2022-12-23T05:45:22.483Z,97847.56
2022-12-23T05:47:49.166Z,97857.75
2022-12-23T05:50:15.886Z,97866.47
2022-12-23T05:52:42.593Z,97850.91
2022-12-23T05:55:09.603Z,97842.81
2022-12-23T05:57:36.297Z,97838.25
2022-12-23T06:00:04.385Z,97826.28
2022-12-23T06:02:39.294Z,97826.16
2022-12-23T06:05:07.011Z,97815.91
2022-12-23T06:07:33.719Z,97839.88
2022-12-23T06:10:00.550Z,97822.47
2022-12-23T06:12:27.279Z,97831.91
2022-12-23T06:14:54.065Z,97832.00
2022-12-23T06:17:20.811Z,97834.66
2022-12-23T06:19:47.597Z,97830.31
2022-12-23T06:22:15.093Z,97830.09
2022-12-23T06:24:41.786Z,97821.44
2022-12-23T06:27:08.522Z,97835.06
2022-12-23T06:29:35.259Z,97838.56
2022-12-23T06:32:02.152Z,97839.66
2022-12-23T06:34:28.984Z,97832.22
2022-12-23T06:36:55.698Z,97852.72
2022-12-23T06:39:22.794Z,97851.97
2022-12-23T06:41:49.761Z,97828.66
2022-12-23T06:44:16.663Z,97854.47
2022-12-23T06:46:43.353Z,97864.03
2022-12-23T06:49:13.444Z,97874.41
2022-12-23T06:51:41.069Z,97857.84
2022-12-23T06:54:14.546Z,97855.16
2022-12-23T06:56:41.246Z,97860.72
2022-12-23T06:59:07.982Z,97850.06
2022-12-23T07:01:34.818Z,97872.56
2022-12-23T07:04:02.038Z,97874.94
2022-12-23T07:06:29.254Z,97868.78
2022-12-23T07:08:55.844Z,97872.41
2022-12-23T07:11:22.672Z,97862.75
2022-12-23T07:13:49.397Z,97866.16
2022-12-23T07:16:16.170Z,97854.78
2022-12-23T07:18:42.918Z,97858.81
2022-12-23T07:21:18.788Z,97847.13
2022-12-23T07:23:51.498Z,97850.31
2022-12-23T07:26:18.229Z,97847.56
2022-12-23T07:28:47.832Z,97844.97
2022-12-23T07:31:15.148Z,97835.38
2022-12-23T07:33:42.238Z,97826.34
2022-12-23T07:36:09.278Z,97830.50
2022-12-23T07:38:35.973Z,97825.88
2022-12-23T07:41:02.672Z,97842.97
2022-12-23T07:43:29.429Z,97847.44
2022-12-23T07:46:00.433Z,97853.22
2022-12-23T07:48:27.936Z,97862.81
2022-12-23T07:51:04.042Z,97864.63
2022-12-23T07:53:30.970Z,97875.25
2022-12-23T07:55:58.422Z,97829.97
2022-12-23T07:58:25.589Z,97818.59
2022-12-23T08:01:00.788Z,97813.00
2022-12-23T08:03:28.140Z,97817.44
2022-12-23T08:06:09.448Z,97857.31
2022-12-23T08:09:01.115Z,97865.06
2022-12-23T08:11:30.566Z,97828.66
2022-12-23T08:13:57.435Z,97902.63
2022-12-23T08:16:24.644Z,97942.34
2022-12-23T08:18:51.766Z,97870.78
2022-12-23T08:21:20.089Z,97921.59
2022-12-23T08:23:47.601Z,97959.22
2022-12-23T08:26:17.114Z,97933.53
2022-12-23T08:28:45.921Z,97930.09
2022-12-23T08:31:28.578Z,97935.78
2022-12-23T08:34:00.472Z,97908.44
2022-12-23T08:36:32.692Z,97969.03
2022-12-23T08:39:10.329Z,97927.53
2022-12-23T08:44:53.492Z,98021.78
2022-12-23T08:47:21.953Z,97998.03
2022-12-23T08:49:51.032Z,97985.22
2022-12-23T08:52:18.466Z,97972.06
2022-12-23T08:54:46.515Z,97975.84
2022-12-23T08:57:14.209Z,98005.41
2022-12-23T08:59:44.974Z,98002.06
2022-12-23T09:02:12.035Z,98037.50
2022-12-23T09:04:39.082Z,98042.75
2022-12-23T09:07:06.096Z,98040.78
2022-12-23T09:09:33.001Z,98035.66
2022-12-23T09:11:59.756Z,98034.72
2022-12-23T09:14:26.452Z,98028.41
2022-12-23T09:16:53.175Z,98012.84
2022-12-23T09:19:20.445Z,98025.22
2022-12-23T09:21:47.907Z,98019.25
2022-12-23T09:24:14.607Z,98016.41
2022-12-23T09:26:41.536Z,98020.13
2022-12-23T09:29:08.304Z,98009.44
2022-12-23T09:31:37.692Z,98000.09
2022-12-23T09:34:06.770Z,98003.41
2022-12-23T09:36:34.864Z,98011.78
2022-12-23T09:39:04.454Z,98020.09
2022-12-23T09:41:35.097Z,98022.81
2022-12-23T09:44:38.981Z,98018.09
2022-12-23T09:47:13.031Z,98006.06
2022-12-23T09:49:47.449Z,98005.53
2022-12-23T09:52:20.795Z,98000.25
2022-12-23T09:54:52.493Z,97998.81
2022-12-23T09:57:42.098Z,97988.81
2022-12-23T10:00:14.083Z,97982.69
2022-12-23T10:02:56.263Z,97982.66
2022-12-23T10:05:41.407Z,97979.34
2022-12-23T10:08:12.286Z,97988.47
2022-12-23T10:11:05.744Z,97988.91
2022-12-23T10:13:37.762Z,97986.69
2022-12-23T10:16:09.678Z,97995.34
2022-12-23T10:18:51.493Z,97990.00
2022-12-23T10:21:26.657Z,97993.44
2022-12-23T10:23:55.287Z,97972.53
2022-12-23T10:26:32.352Z,97969.34
2022-12-23T10:29:08.301Z,97968.88
2022-12-23T10:31:50.433Z,97975.09
2022-12-23T10:34:26.964Z,97970.75
2022-12-23T10:36:59.195Z,97976.28
2022-12-23T10:39:51.447Z,97986.75
2022-12-23T10:42:56.313Z,97984.72
2022-12-23T10:45:59.410Z,97977.72
2022-12-23T10:48:55.130Z,97979.53
2022-12-23T10:51:55.837Z,97979.69
2022-12-23T10:54:36.930Z,97970.59
2022-12-23T10:57:05.621Z,97966.34
2022-12-23T10:59:34.037Z,97962.34
2022-12-23T11:02:19.485Z,97949.88
2022-12-23T11:04:48.980Z,97949.78
2022-12-23T11:10:17.737Z,97933.50
2022-12-23T11:12:53.099Z,97923.28
2022-12-23T11:15:35.195Z,97928.09
2022-12-23T11:18:16.787Z,97946.03
2022-12-23T11:20:46.516Z,97929.06
2022-12-23T11:23:27.605Z,97916.66
2022-12-23T11:26:10.293Z,97917.25
2022-12-23T11:28:51.165Z,97914.22
2022-12-23T11:31:27.247Z,97918.94
2022-12-23T11:34:01.733Z,97926.97
2022-12-23T11:36:30.682Z,97926.31
2022-12-23T11:39:10.578Z,97919.22
2022-12-23T11:42:06.224Z,97920.53
2022-12-23T11:44:41.633Z,97919.69
2022-12-23T11:47:21.755Z,97916.09
2022-12-23T11:50:00.242Z,97925.19
2022-12-23T11:52:31.207Z,97921.63
2022-12-23T11:55:00.645Z,97914.75
2022-12-23T11:57:33.204Z,97925.25
2022-12-23T12:00:06.256Z,97932.06
2022-12-23T12:02:55.052Z,97930.19
2022-12-23T12:05:33.662Z,97945.41
2022-12-23T12:08:03.721Z,97935.75
2022-12-23T12:10:34.058Z,97936.13
2022-12-23T12:13:07.608Z,97929.13
2022-12-23T12:15:50.407Z,97927.25
2022-12-23T12:18:19.674Z,97923.97
2022-12-23T12:20:51.675Z,97918.59
2022-12-23T12:23:27.720Z,97916.63
2022-12-23T12:26:04.812Z,97917.63
2022-12-23T12:28:41.533Z,97922.56
2022-12-23T12:31:24.666Z,97905.63
2022-12-23T12:34:05.159Z,97900.69
2022-12-23T12:36:48.509Z,97888.84
2022-12-23T12:39:43.317Z,97891.22
2022-12-23T12:42:41.045Z,97885.19
2022-12-23T12:45:20.649Z,97881.31
2022-12-23T12:47:57.048Z,97883.91
2022-12-23T12:50:30.364Z,97885.13
2022-12-23T12:53:04.051Z,97884.00
2022-12-23T12:55:39.742Z,97890.97
2022-12-23T12:58:18.625Z,97889.47
2022-12-23T13:01:15.128Z,97890.06
2022-12-23T13:03:50.588Z,97880.09
2022-12-23T13:06:22.890Z,97890.66
2022-12-23T13:09:01.430Z,97901.38
2022-12-23T13:12:00.242Z,97897.69
2022-12-23T13:14:33.878Z,97894.59
2022-12-23T13:17:22.878Z,97887.38
2022-12-23T13:20:17.029Z,97890.03
2022-12-23T13:22:46.089Z,97885.94
2022-12-23T13:25:19.908Z,97880.22
2022-12-23T13:27:57.202Z,97871.53
2022-12-23T13:30:28.744Z,97875.38
2022-12-23T13:33:49.552Z,97885.59
2022-12-23T13:36:32.072Z,97885.41
2022-12-23T13:39:05.604Z,97895.97
2022-12-23T13:41:51.687Z,97901.22
2022-12-23T13:44:20.734Z,97902.25
2022-12-23T13:47:14.093Z,97917.94
2022-12-23T13:49:40.742Z,97919.50
2022-12-23T13:52:11.957Z,97909.75
2022-12-23T13:55:14.652Z,97907.44
2022-12-23T13:58:06.308Z,97893.06
2022-12-23T14:00:34.498Z,97885.88
2022-12-23T14:03:01.192Z,97888.22
2022-12-23T14:05:34.568Z,97886.97
2022-12-23T14:08:22.794Z,97889.38
2022-12-23T14:11:00.633Z,97892.72
2022-12-23T14:13:40.066Z,97891.72
2022-12-23T14:16:22.645Z,97891.56
2022-12-23T14:19:30.439Z,97893.16
2022-12-23T14:22:09.205Z,97894.50
2022-12-23T14:25:11.562Z,97894.44
2022-12-23T14:28:07.570Z,97903.16
2022-12-23T14:30:37.406Z,97889.13
2022-12-23T14:33:23.729Z,97888.09
2022-12-23T14:35:51.867Z,97884.44
2022-12-23T14:38:24.347Z,97886.25
2022-12-23T14:40:54.030Z,97880.53
2022-12-23T14:43:26.662Z,97885.63
2022-12-23T14:46:01.736Z,97885.22
2022-12-23T14:48:34.658Z,97898.06
2022-12-23T14:51:08.360Z,97892.38
2022-12-23T14:53:37.617Z,97898.16
2022-12-23T14:56:22.837Z,97894.97
2022-12-23T14:58:52.698Z,97876.00
2022-12-23T15:01:54.008Z,97872.63
2022-12-23T15:04:37.281Z,97869.72
2022-12-23T15:07:07.805Z,97872.00
2022-12-23T15:10:00.779Z,97865.66
2022-12-23T15:12:40.499Z,97869.00
2022-12-23T15:15:29.058Z,97863.22
2022-12-23T15:18:03.333Z,97858.81
2022-12-23T15:20:30.159Z,97850.81
2022-12-23T15:23:00.842Z,97864.66
2022-12-23T15:25:30.011Z,97859.06
2022-12-23T15:28:01.967Z,97862.16
2022-12-23T15:30:34.580Z,97864.41
2022-12-23T15:33:28.249Z,97871.03
2022-12-23T15:35:56.045Z,97860.25
2022-12-23T15:38:29.336Z,97835.25
2022-12-23T15:41:13.721Z,97839.75
2022-12-23T15:43:42.646Z,97840.69
2022-12-23T15:46:17.479Z,97852.19
2022-12-23T15:48:46.333Z,97847.28
2022-12-23T15:54:31.717Z,97850.28
2022-12-23T15:57:00.337Z,97842.25
2022-12-23T15:59:38.639Z,97834.13
2022-12-23T16:02:32.494Z,97789.28
2022-12-23T16:05:00.681Z,97776.13
2022-12-23T16:07:39.240Z,97774.88
2022-12-23T16:10:16.109Z,97792.03
2022-12-23T16:12:43.828Z,97778.84
2022-12-23T16:15:28.658Z,97773.59
2022-12-23T16:18:21.911Z,97765.38
2022-12-23T16:20:59.665Z,97785.59
2022-12-23T16:23:30.218Z,97785.38
2022-12-23T16:26:00.225Z,97762.88
2022-12-23T16:28:31.128Z,97770.56
2022-12-23T16:30:58.441Z,97772.59
2022-12-23T16:33:34.456Z,97777.16
2022-12-23T16:36:16.834Z,97798.16
2022-12-23T16:38:44.009Z,97796.56
2022-12-23T16:41:10.681Z,97784.41
2022-12-23T16:43:37.642Z,97786.59
2022-12-23T16:46:05.142Z,97784.31
2022-12-23T16:48:41.366Z,97772.22
2022-12-23T16:51:12.765Z,97764.56
2022-12-23T16:53:40.143Z,97759.41
2022-12-23T16:56:15.008Z,97750.50
2022-12-23T16:58:42.577Z,97742.41
2022-12-23T17:01:21.908Z,97723.56
2022-12-23T17:03:49.038Z,97736.88
2022-12-23T17:06:16.857Z,97750.91
2022-12-23T17:08:43.929Z,97748.22
2022-12-23T17:11:21.205Z,97746.50
2022-12-23T17:13:47.919Z,97750.97
2022-12-23T17:16:15.910Z,97767.66
2022-12-23T17:18:42.598Z,97777.47
2022-12-23T17:21:30.562Z,97790.44
2022-12-23T17:24:25.726Z,97797.50
2022-12-23T17:26:53.859Z,97786.50
2022-12-23T17:29:20.789Z,97785.97
2022-12-23T17:31:48.493Z,97782.41
2022-12-23T17:34:18.006Z,97776.34
2022-12-23T17:36:49.950Z,97774.09
2022-12-23T17:39:18.069Z,97770.69
2022-12-23T17:41:44.860Z,97766.63
2022-12-23T17:44:14.400Z,97767.06
2022-12-23T17:46:41.377Z,97752.84
2022-12-23T17:49:08.595Z,97737.53
2022-12-23T17:51:35.615Z,97735.66
2022-12-23T17:54:04.509Z,97747.03
2022-12-23T17:56:31.332Z,97734.06
2022-12-23T17:58:58.845Z,97750.66
2022-12-23T18:01:28.442Z,97748.44
2022-12-23T18:03:57.282Z,97725.94
2022-12-23T18:06:25.767Z,97727.31
2022-12-23T18:08:52.573Z,97739.59
2022-12-23T18:11:23.474Z,97747.84
2022-12-23T18:13:52.818Z,97764.75
2022-12-23T18:16:19.589Z,97762.53
2022-12-23T18:18:47.195Z,97771.53
2022-12-23T18:21:20.947Z,97752.22
2022-12-23T18:23:47.811Z,97762.53
2022-12-23T18:26:17.515Z,97759.31
2022-12-23T18:28:44.920Z,97752.63
2022-12-23T18:31:21.084Z,97756.44
2022-12-23T18:33:48.546Z,97755.75
2022-12-23T18:36:22.750Z,97751.78
2022-12-23T18:38:50.001Z,97751.13
2022-12-23T18:41:16.591Z,97747.59
2022-12-23T18:43:43.325Z,97762.28
2022-12-23T18:46:10.099Z,97758.97
2022-12-23T18:48:36.880Z,97770.69
2022-12-23T18:51:03.722Z,97779.63
2022-12-23T18:53:30.456Z,97778.50
2022-12-23T18:55:57.197Z,97786.66
2022-12-23T18:58:24.564Z,97776.25
2022-12-23T19:00:53.142Z,97778.63
2022-12-23T19:03:29.028Z,97791.34
2022-12-23T19:05:56.755Z,97789.78
2022-12-23T19:08:27.415Z,97792.00
2022-12-23T19:10:55.195Z,97791.06
2022-12-23T19:13:21.828Z,97787.59
2022-12-23T19:15:48.910Z,97803.31
2022-12-23T19:18:17.072Z,97787.53
2022-12-23T19:20:45.076Z,97784.56
2022-12-23T19:23:12.991Z,97803.84
2022-12-23T19:25:52.646Z,97791.81
2022-12-23T19:28:21.979Z,97811.50
2022-12-23T19:30:48.906Z,97795.94
2022-12-23T19:33:15.842Z,97797.63
2022-12-23T19:35:43.822Z,97797.72
2022-12-23T19:38:12.372Z,97803.44
2022-12-23T19:40:40.023Z,97794.66
2022-12-23T19:43:07.189Z,97779.16
2022-12-23T19:45:33.832Z,97783.63
2022-12-23T19:48:00.688Z,97791.81
2022-12-23T19:50:28.227Z,97769.63
2022-12-23T19:52:56.481Z,97774.09
2022-12-23T19:55:24.142Z,97779.44
2022-12-23T19:57:51.815Z,97773.41
2022-12-23T20:00:18.649Z,97762.25
2022-12-23T20:02:45.401Z,97771.88
2022-12-23T20:05:12.140Z,97760.38
2022-12-23T20:07:38.949Z,97741.91
2022-12-23T20:10:06.578Z,97740.13
2022-12-23T20:12:33.459Z,97737.59
2022-12-23T20:15:00.303Z,97720.09
2022-12-23T20:17:27.009Z,97726.09
2022-12-23T20:19:53.688Z,97719.00
2022-12-23T20:22:20.392Z,97720.63
2022-12-23T20:24:47.304Z,97731.19
2022-12-23T20:27:16.157Z,97757.03
2022-12-23T20:29:43.342Z,97753.00
2022-12-23T20:32:10.610Z,97738.91
2022-12-23T20:34:39.998Z,97751.78
2022-12-23T20:37:07.829Z,97745.44
2022-12-23T20:39:34.991Z,97744.66
2022-12-23T20:42:01.747Z,97762.50
2022-12-23T20:44:37.279Z,97740.69
2022-12-23T20:47:06.075Z,97740.22
2022-12-23T20:49:33.616Z,97729.72
2022-12-23T20:52:00.454Z,97742.03
2022-12-23T20:54:32.669Z,97727.44
2022-12-23T20:57:00.405Z,97732.13
2022-12-23T20:59:27.139Z,97765.41
2022-12-23T21:01:53.910Z,97756.56
2022-12-23T21:04:20.920Z,97761.66
2022-12-23T21:06:47.739Z,97774.38
2022-12-23T21:09:16.012Z,97757.06
2022-12-23T21:11:46.123Z,97742.69
2022-12-23T21:14:14.493Z,97735.22
2022-12-23T21:16:42.324Z,97761.19
2022-12-23T21:19:14.219Z,97754.94
2022-12-23T21:21:40.994Z,97758.88
2022-12-23T21:24:07.884Z,97761.28
2022-12-23T21:26:35.535Z,97746.47
2022-12-23T21:29:04.983Z,97740.16
2022-12-23T21:31:33.767Z,97749.78
2022-12-23T21:34:00.863Z,97738.41
2022-12-23T21:36:33.411Z,97733.16
2022-12-23T21:39:00.873Z,97730.16
2022-12-23T21:41:30.192Z,97732.09
2022-12-23T21:43:58.563Z,97702.66
2022-12-23T21:46:26.234Z,97716.66
2022-12-23T21:48:53.441Z,97712.69
2022-12-23T21:51:21.831Z,97714.53
2022-12-23T21:53:50.545Z,97707.50
2022-12-23T21:56:24.563Z,97707.72
2022-12-23T21:59:03.270Z,97705.91
2022-12-23T22:01:31.393Z,97710.44
2022-12-23T22:03:58.747Z,97722.75
2022-12-23T22:06:28.892Z,97708.66
2022-12-23T22:08:56.853Z,97710.28
2022-12-23T22:11:26.958Z,97687.88
2022-12-23T22:13:56.520Z,97708.59
2022-12-23T22:16:25.702Z,97730.09
2022-12-23T22:18:55.594Z,97731.69
2022-12-23T22:21:24.717Z,97717.91
2022-12-23T22:23:53.606Z,97710.75
2022-12-23T22:26:26.407Z,97725.13
2022-12-23T22:28:55.410Z,97738.72
2022-12-23T22:31:34.191Z,97754.31
2022-12-23T22:34:01.497Z,97725.53
2022-12-23T22:36:28.485Z,97713.50
2022-12-23T22:38:57.824Z,97718.13
2022-12-23T22:41:25.821Z,97729.69
2022-12-23T22:43:52.576Z,97716.81
2022-12-23T22:46:19.477Z,97734.06
2022-12-23T22:48:46.303Z,97722.66
2022-12-23T22:51:18.764Z,97715.19
2022-12-23T22:53:45.921Z,97704.81
2022-12-23T22:56:14.866Z,97724.50
2022-12-23T22:58:42.201Z,97729.09
2022-12-23T23:01:25.480Z,97709.94
2022-12-23T23:03:57.386Z,97706.28
2022-12-23T23:06:32.828Z,97698.19
2022-12-23T23:08:59.926Z,97693.66
2022-12-23T23:11:28.054Z,97709.28
2022-12-23T23:13:55.357Z,97700.59
2022-12-23T23:16:22.758Z,97702.66
2022-12-23T23:18:50.791Z,97705.03
2022-12-23T23:21:17.805Z,97695.94
2022-12-23T23:23:44.769Z,97670.63
2022-12-23T23:26:11.664Z,97668.47
2022-12-23T23:28:39.547Z,97668.00
2022-12-23T23:31:40.450Z,97673.69
2022-12-23T23:33:54.060Z,97691.63
2022-12-23T23:36:20.819Z,97695.47
2022-12-23T23:38:47.561Z,97681.16
2022-12-23T23:41:20.509Z,97659.38
2022-12-23T23:43:49.490Z,97674.22
2022-12-23T23:46:16.241Z,97671.59
2022-12-23T23:48:42.995Z,97678.69
2022-12-23T23:51:09.845Z,97691.69
2022-12-23T23:53:36.646Z,97681.91
2022-12-23T23:56:07.880Z,97681.50
2022-12-23T23:58:36.292Z,97704.09
